Time;durP1;ratioP1;P1;durP2;ratioP2;P2;SDS_P1;SDS_P2;PMS_P1;PMS_P2;Temp;Humidity;BMP_temperature;BMP_pressure;BME280_temperature;BME280_humidity;BME280_pressure;Samples;Min_cycle;Max_cycle;Signal;HPM_P1;HPM_P2
2023/06/02 00:02:08;;;;;;;3.38;3.20;;;21.30;73.60;;;;;;4988268;28;20152;-75
2023/06/02 00:04:35;;;;;;;2.97;2.78;;;21.30;73.60;;;;;;4988845;28;22180;-76
2023/06/02 00:07:03;;;;;;;3.03;2.83;;;21.30;73.60;;;;;;4990517;28;20065;-75
2023/06/02 00:09:29;;;;;;;3.40;3.20;;;21.30;73.60;;;;;;4989386;28;20041;-75
2023/06/02 00:11:54;;;;;;;3.03;2.83;;;21.20;73.50;;;;;;4985010;28;20065;-75
2023/06/02 00:14:21;;;;;;;3.30;3.10;;;21.30;73.50;;;;;;4990349;28;20058;-75
2023/06/02 00:16:47;;;;;;;3.30;3.10;;;21.20;73.50;;;;;;4990152;28;20037;-76
2023/06/02 00:19:13;;;;;;;3.13;3.00;;;21.20;73.50;;;;;;4988185;28;20119;-75
2023/06/02 00:21:40;;;;;;;3.10;2.90;;;21.20;73.40;;;;;;5001212;28;20102;-75
2023/06/02 00:24:06;;;;;;;3.63;3.33;;;21.20;73.40;;;;;;4989481;28;20095;-76
2023/06/02 00:26:32;;;;;;;3.22;3.03;;;21.20;73.40;;;;;;4989213;28;20056;-75
2023/06/02 00:28:57;;;;;;;3.50;3.30;;;21.20;73.40;;;;;;4989461;28;20068;-75
2023/06/02 00:31:23;;;;;;;3.08;2.88;;;21.20;73.40;;;;;;4988845;28;20458;-75
2023/06/02 00:33:49;;;;;;;3.47;3.28;;;21.20;73.40;;;;;;4988841;28;20053;-75
2023/06/02 00:36:15;;;;;;;2.75;2.65;;;21.20;73.40;;;;;;4975491;28;20046;-75
2023/06/02 00:38:41;;;;;;;3.10;3.00;;;21.20;73.50;;;;;;4988780;28;20065;-75
2023/06/02 00:41:07;;;;;;;3.03;2.85;;;21.20;73.40;;;;;;4988094;28;20591;-75
2023/06/02 00:43:33;;;;;;;2.83;2.72;;;21.20;73.40;;;;;;5005072;28;20049;-75
2023/06/02 00:45:59;;;;;;;2.75;2.65;;;21.20;73.40;;;;;;4989371;28;21500;-75
2023/06/02 00:48:25;;;;;;;3.30;2.97;;;21.20;73.50;;;;;;4972175;28;20154;-75
2023/06/02 00:50:51;;;;;;;2.88;2.78;;;21.20;73.40;;;;;;5002367;28;20065;-75
2023/06/02 00:53:17;;;;;;;3.08;2.88;;;21.20;73.40;;;;;;4989933;28;20046;-75
2023/06/02 00:55:43;;;;;;;3.10;2.90;;;21.20;73.40;;;;;;4989446;28;21929;-75
2023/06/02 00:58:13;;;;;;;2.60;2.50;;;21.20;73.30;;;;;;4988305;28;20060;-75
2023/06/02 01:00:42;;;;;;;3.25;3.00;;;21.20;73.40;;;;;;4987318;28;20092;-75
2023/06/02 01:03:07;;;;;;;2.55;2.45;;;21.20;73.30;;;;;;4988182;28;20042;-75
2023/06/02 01:05:35;;;;;;;2.80;2.70;;;21.20;73.30;;;;;;4989170;28;20037;-75
2023/06/02 01:08:02;;;;;;;2.85;2.70;;;21.20;73.40;;;;;;4974729;28;20069;-75
2023/06/02 01:10:28;;;;;;;3.28;3.08;;;21.20;73.40;;;;;;4986874;28;20081;-75
2023/06/02 01:12:54;;;;;;;2.88;2.67;;;21.20;73.40;;;;;;4969765;28;21415;-75
2023/06/02 01:15:19;;;;;;;2.78;2.67;;;21.20;73.40;;;;;;4972893;28;20045;-75
2023/06/02 01:17:45;;;;;;;2.95;2.85;;;21.20;73.40;;;;;;5004047;28;20116;-75
2023/06/02 01:20:12;;;;;;;2.90;2.70;;;21.20;73.40;;;;;;4972148;28;20057;-75
2023/06/02 01:22:45;;;;;;;3.30;3.17;;;21.20;73.40;;;;;;4988401;28;20188;-75
2023/06/02 01:25:21;;;;;;;2.92;2.83;;;21.20;73.40;;;;;;4976480;28;20053;-75
2023/06/02 01:27:46;;;;;;;3.13;2.92;;;21.20;73.40;;;;;;4989351;28;20046;-76
2023/06/02 01:30:12;;;;;;;3.17;2.97;;;21.20;73.30;;;;;;4991618;28;20073;-75
2023/06/02 01:32:41;;;;;;;3.35;3.15;;;21.20;73.30;;;;;;4990244;28;20149;-75
2023/06/02 01:35:07;;;;;;;2.75;2.55;;;21.20;73.30;;;;;;4976981;28;20181;-75
2023/06/02 01:37:33;;;;;;;2.92;2.75;;;21.20;73.30;;;;;;4975162;28;20073;-75
2023/06/02 01:40:00;;;;;;;2.95;2.80;;;21.20;73.30;;;;;;4973784;28;20649;-75
2023/06/02 01:42:25;;;;;;;2.95;2.85;;;21.20;73.30;;;;;;4989813;28;20058;-75
2023/06/02 01:44:51;;;;;;;3.10;2.90;;;21.20;73.20;;;;;;4974438;28;20882;-75
2023/06/02 01:47:16;;;;;;;3.28;3.08;;;21.20;73.30;;;;;;4975619;28;20054;-75
2023/06/02 01:49:42;;;;;;;2.80;2.70;;;21.20;73.30;;;;;;4990306;28;20128;-75
2023/06/02 01:52:07;;;;;;;2.90;2.70;;;21.20;73.20;;;;;;4991012;28;20107;-75
2023/06/02 01:54:33;;;;;;;2.70;2.60;;;21.20;73.20;;;;;;4992689;28;20164;-75
2023/06/02 01:56:58;;;;;;;2.92;2.72;;;21.20;73.20;;;;;;4992367;28;20672;-75
2023/06/02 01:59:25;;;;;;;2.55;2.45;;;21.20;73.90;;;;;;4992096;28;20401;-75
2023/06/02 02:01:51;;;;;;;2.58;2.47;;;21.20;73.10;;;;;;4989876;28;20046;-75
2023/06/02 02:04:16;;;;;;;2.78;2.67;;;21.20;73.10;;;;;;4992230;28;20177;-75
2023/06/02 02:06:45;;;;;;;2.47;2.30;;;21.20;73.00;;;;;;4991150;28;20048;-75
2023/06/02 02:09:10;;;;;;;2.65;2.47;;;21.10;72.90;;;;;;4992286;28;20054;-75
2023/06/02 02:11:36;;;;;;;2.50;2.40;;;21.20;73.00;;;;;;4991644;28;20077;-75
2023/06/02 02:14:04;;;;;;;2.50;2.40;;;21.10;72.80;;;;;;4993611;28;20053;-75
2023/06/02 02:16:30;;;;;;;2.80;2.70;;;21.20;72.90;;;;;;4993679;28;20037;-75
2023/06/02 02:18:56;;;;;;;2.53;2.42;;;21.10;72.80;;;;;;4991284;28;20589;-75
2023/06/02 02:21:21;;;;;;;3.00;2.80;;;21.20;72.80;;;;;;5005366;28;20103;-75
2023/06/02 02:23:47;;;;;;;2.60;2.50;;;21.20;72.70;;;;;;4992974;28;20050;-75
2023/06/02 02:26:13;;;;;;;2.95;2.75;;;21.20;72.80;;;;;;4991859;28;20515;-75
2023/06/02 02:28:38;;;;;;;3.60;3.40;;;21.10;72.70;;;;;;4975579;28;20034;-75
2023/06/02 02:31:07;;;;;;;2.80;2.70;;;21.20;72.80;;;;;;4991054;28;20096;-75
2023/06/02 02:33:33;;;;;;;2.72;2.63;;;21.10;72.70;;;;;;4991078;28;20546;-75
2023/06/02 02:35:58;;;;;;;2.65;2.55;;;21.10;72.60;;;;;;4990026;28;20050;-75
2023/06/02 02:38:24;;;;;;;2.70;2.58;;;21.20;72.70;;;;;;4991505;28;20034;-75
2023/06/02 02:40:50;;;;;;;2.63;2.53;;;21.10;72.60;;;;;;4990221;28;20226;-75
2023/06/02 02:43:17;;;;;;;2.63;2.53;;;21.10;72.60;;;;;;4991803;28;20652;-75
2023/06/02 02:45:43;;;;;;;2.60;2.50;;;21.20;72.60;;;;;;5005634;28;21066;-75
2023/06/02 02:48:09;;;;;;;2.17;2.08;;;21.10;72.60;;;;;;5006509;28;20866;-75
2023/06/02 02:50:34;;;;;;;2.40;2.30;;;21.10;72.50;;;;;;4990077;28;20084;-75
2023/06/02 02:53:01;;;;;;;2.50;2.40;;;21.10;72.50;;;;;;4990663;28;20046;-75
2023/06/02 02:55:26;;;;;;;2.15;2.05;;;21.10;72.50;;;;;;4991966;28;20542;-75
2023/06/02 02:57:52;;;;;;;2.58;2.47;;;21.10;72.50;;;;;;4989264;28;20073;-75
2023/06/02 03:00:18;;;;;;;2.53;2.42;;;21.10;72.40;;;;;;4990363;28;20348;-75
2023/06/02 03:02:44;;;;;;;2.40;2.30;;;21.10;72.40;;;;;;4989346;28;20045;-76
2023/06/02 03:05:13;;;;;;;2.60;2.50;;;21.10;72.40;;;;;;4993684;28;20561;-75
2023/06/02 03:07:44;;;;;;;2.50;2.40;;;21.10;72.50;;;;;;4993135;28;20038;-75
2023/06/02 03:10:10;;;;;;;2.58;2.47;;;21.10;72.40;;;;;;4988713;28;20178;-75
2023/06/02 03:12:36;;;;;;;2.78;2.67;;;21.10;72.40;;;;;;4988418;28;20819;-75
2023/06/02 03:15:02;;;;;;;2.55;2.40;;;21.10;72.40;;;;;;4986892;28;20116;-75
2023/06/02 03:17:30;;;;;;;2.78;2.58;;;21.10;72.40;;;;;;4992095;28;21281;-75
2023/06/02 03:19:56;;;;;;;2.38;2.28;;;21.10;72.50;;;;;;4973499;28;20041;-75
2023/06/02 03:22:22;;;;;;;2.42;2.33;;;21.10;72.50;;;;;;4986847;28;20038;-75
2023/06/02 03:24:48;;;;;;;2.15;2.05;;;21.10;72.50;;;;;;4973284;28;20048;-75
2023/06/02 03:27:15;;;;;;;2.85;2.60;;;21.10;72.50;;;;;;4989472;28;20076;-75
2023/06/02 03:29:41;;;;;;;2.63;2.53;;;21.10;72.50;;;;;;4989155;28;20045;-75
2023/06/02 03:32:10;;;;;;;3.00;2.90;;;21.10;72.50;;;;;;4988167;28;20478;-75
2023/06/02 03:34:36;;;;;;;2.65;2.55;;;21.10;72.50;;;;;;4989483;28;20049;-75
2023/06/02 03:37:02;;;;;;;2.70;2.60;;;21.10;72.40;;;;;;4990781;28;20097;-75
2023/06/02 03:39:28;;;;;;;2.35;2.15;;;21.10;72.40;;;;;;4990605;28;20057;-75
2023/06/02 03:41:53;;;;;;;2.80;2.70;;;21.10;72.40;;;;;;4986408;28;20056;-75
2023/06/02 03:44:20;;;;;;;2.40;2.30;;;21.10;72.40;;;;;;4988679;28;20775;-75
2023/06/02 03:46:45;;;;;;;2.70;2.60;;;21.10;72.40;;;;;;4991114;28;20088;-75
2023/06/02 03:49:11;;;;;;;2.60;2.50;;;21.10;72.40;;;;;;4988593;28;20129;-75
2023/06/02 03:51:36;;;;;;;2.50;2.40;;;21.10;72.40;;;;;;4986602;28;20140;-75
2023/06/02 03:54:02;;;;;;;3.00;2.90;;;21.10;72.40;;;;;;4987387;28;20042;-75
2023/06/02 03:56:28;;;;;;;2.20;2.10;;;21.10;72.30;;;;;;4991066;28;20137;-75
2023/06/02 03:58:53;;;;;;;2.67;2.58;;;21.10;72.30;;;;;;4990528;28;20046;-75
2023/06/02 04:01:21;;;;;;;2.95;2.85;;;21.10;72.30;;;;;;4989365;28;20050;-75
2023/06/02 04:03:46;;;;;;;2.42;2.33;;;21.10;72.30;;;;;;4986266;28;20102;-75
2023/06/02 04:06:12;;;;;;;2.17;2.08;;;21.10;72.30;;;;;;4989198;28;20362;-75
2023/06/02 04:08:37;;;;;;;2.33;2.22;;;21.10;72.20;;;;;;4991073;28;20058;-75
2023/06/02 04:11:03;;;;;;;2.20;2.10;;;21.10;72.20;;;;;;4987941;28;20066;-75
2023/06/02 04:13:29;;;;;;;2.13;2.03;;;21.10;72.20;;;;;;5003329;28;20062;-75
2023/06/02 04:15:54;;;;;;;2.08;1.98;;;21.10;72.20;;;;;;4989565;28;20046;-76
2023/06/02 04:18:20;;;;;;;6.88;5.03;;;21.10;72.30;;;;;;4988546;28;20104;-75
2023/06/02 04:20:46;;;;;;;6.55;5.93;;;20.40;63.50;;;;;;4987308;28;20053;-74
2023/06/02 04:23:12;;;;;;;6.97;6.25;;;19.00;64.40;;;;;;4990812;28;20188;-74
2023/06/02 04:25:37;;;;;;;6.75;5.78;;;18.30;66.20;;;;;;4990824;28;20539;-74
2023/06/02 04:28:03;;;;;;;7.20;6.03;;;17.80;67.50;;;;;;4989512;28;20065;-74
2023/06/02 04:30:29;;;;;;;7.78;6.00;;;17.70;67.60;;;;;;4989073;28;20056;-73
2023/06/02 04:32:54;;;;;;;6.60;5.90;;;17.40;68.60;;;;;;4991847;28;20590;-73
2023/06/02 04:35:20;;;;;;;6.88;5.88;;;17.20;69.00;;;;;;5002963;28;20049;-73
2023/06/02 04:37:46;;;;;;;8.55;6.93;;;17.00;69.80;;;;;;5002893;28;20410;-73
2023/06/02 04:40:13;;;;;;;8.50;6.80;;;17.00;70.10;;;;;;4999174;28;20042;-73
2023/06/02 04:42:39;;;;;;;8.25;6.68;;;16.80;70.50;;;;;;4999526;28;20049;-73
2023/06/02 04:45:11;;;;;;;7.30;6.60;;;16.80;70.20;;;;;;5000849;28;20636;-73
2023/06/02 04:47:37;;;;;;;9.23;6.85;;;16.70;70.60;;;;;;5012812;28;20053;-73
2023/06/02 04:50:02;;;;;;;6.82;6.10;;;16.60;71.10;;;;;;4986983;28;20046;-73
2023/06/02 04:52:28;;;;;;;7.50;6.72;;;16.60;71.10;;;;;;4998637;28;20601;-73
2023/06/02 04:54:54;;;;;;;7.20;6.45;;;16.30;71.50;;;;;;4998038;28;20509;-73
2023/06/02 04:57:19;;;;;;;6.93;6.22;;;16.40;71.50;;;;;;5002901;28;20838;-73
2023/06/02 04:59:45;;;;;;;7.55;6.85;;;16.40;71.50;;;;;;5001837;28;20423;-73
2023/06/02 05:02:12;;;;;;;8.70;6.43;;;16.30;72.40;;;;;;5003013;28;20070;-72
2023/06/02 05:04:37;;;;;;;9.63;7.20;;;16.30;72.50;;;;;;5005036;28;20046;-73
2023/06/02 05:07:04;;;;;;;7.53;6.88;;;16.20;72.60;;;;;;5005057;28;20044;-73
2023/06/02 05:09:30;;;;;;;8.45;7.60;;;16.10;73.30;;;;;;5001622;28;20045;-73
2023/06/02 05:11:55;;;;;;;10.25;8.10;;;16.10;73.70;;;;;;5004191;28;20131;-74
2023/06/02 05:14:21;;;;;;;7.88;7.18;;;16.10;73.40;;;;;;5006317;28;20053;-73
2023/06/02 05:16:46;;;;;;;8.85;7.30;;;16.00;73.70;;;;;;5009346;28;20426;-73
2023/06/02 05:19:12;;;;;;;8.40;7.60;;;16.00;73.90;;;;;;4997281;28;20050;-73
2023/06/02 05:21:38;;;;;;;8.43;7.03;;;15.90;74.10;;;;;;5002634;28;20523;-72
2023/06/02 05:24:03;;;;;;;7.22;6.65;;;15.80;74.40;;;;;;5005690;28;20049;-73
2023/06/02 05:26:29;;;;;;;9.10;7.03;;;15.80;74.50;;;;;;5005361;28;20054;-73
2023/06/02 05:28:54;;;;;;;8.30;7.57;;;15.90;74.00;;;;;;4986456;28;20046;-73
2023/06/02 05:31:20;;;;;;;7.55;6.85;;;15.70;74.30;;;;;;5007925;28;20038;-73
2023/06/02 05:33:46;;;;;;;7.90;7.18;;;15.70;74.70;;;;;;5018938;28;20073;-73
2023/06/02 05:36:11;;;;;;;9.55;7.35;;;15.70;74.70;;;;;;5002539;28;20038;-74
2023/06/02 05:38:42;;;;;;;8.88;7.97;;;15.80;74.50;;;;;;5004974;28;20069;-73
2023/06/02 05:41:08;;;;;;;9.50;8.25;;;15.80;74.50;;;;;;5001674;28;20073;-73
2023/06/02 05:43:34;;;;;;;8.43;7.57;;;15.80;74.10;;;;;;5001552;28;20381;-73
2023/06/02 05:45:59;;;;;;;8.32;7.50;;;15.80;74.30;;;;;;5001913;28;20052;-73
2023/06/02 05:48:25;;;;;;;8.30;7.32;;;15.80;74.20;;;;;;5006833;28;20388;-73
2023/06/02 05:50:50;;;;;;;9.68;7.63;;;15.70;74.40;;;;;;4998322;28;20454;-73
2023/06/02 05:53:16;;;;;;;7.97;7.28;;;15.70;74.00;;;;;;5004024;28;20050;-73
2023/06/02 05:55:42;;;;;;;8.45;7.60;;;15.60;74.50;;;;;;5004727;28;20897;-73
2023/06/02 05:58:07;;;;;;;7.43;6.80;;;15.70;75.20;;;;;;5000176;28;20419;-73
2023/06/02 06:00:33;;;;;;;7.15;6.53;;;15.60;74.40;;;;;;5003395;28;20053;-72
2023/06/02 06:02:59;;;;;;;7.88;6.70;;;15.60;74.50;;;;;;5004125;28;20530;-73
2023/06/02 06:05:25;;;;;;;7.45;6.85;;;15.50;74.40;;;;;;5004480;28;20049;-73
2023/06/02 06:07:50;;;;;;;8.00;7.30;;;15.60;74.70;;;;;;5002414;28;20493;-73
2023/06/02 06:10:16;;;;;;;10.02;7.70;;;15.60;74.80;;;;;;5003485;28;20522;-73
2023/06/02 06:12:41;;;;;;;8.48;7.70;;;15.50;74.60;;;;;;5001835;28;20041;-73
2023/06/02 06:15:07;;;;;;;8.35;7.65;;;15.40;74.60;;;;;;5000184;28;20050;-73
2023/06/02 06:17:33;;;;;;;8.30;7.68;;;15.40;74.90;;;;;;5003575;28;20436;-73
2023/06/02 06:19:58;;;;;;;8.43;7.53;;;15.40;74.80;;;;;;5005597;28;20530;-73
2023/06/02 06:22:24;;;;;;;8.82;8.00;;;15.40;74.70;;;;;;5019391;28;20415;-73
2023/06/02 06:24:50;;;;;;;7.60;7.00;;;15.50;74.40;;;;;;5003279;28;20487;-73
2023/06/02 06:27:15;;;;;;;8.95;8.13;;;15.60;74.70;;;;;;5004227;28;20050;-73
2023/06/02 06:29:41;;;;;;;8.70;7.63;;;15.60;74.40;;;;;;5006203;28;20569;-73
2023/06/02 06:32:07;;;;;;;7.95;7.32;;;15.70;74.40;;;;;;5005483;28;20041;-73
2023/06/02 06:34:32;;;;;;;7.43;6.72;;;15.60;74.10;;;;;;5001900;28;20053;-73
2023/06/02 06:36:58;;;;;;;8.00;7.40;;;15.60;74.00;;;;;;4999388;28;20443;-73
2023/06/02 06:39:23;;;;;;;7.65;7.05;;;15.50;74.80;;;;;;5003708;28;20096;-73
2023/06/02 06:41:49;;;;;;;8.70;8.10;;;15.60;74.60;;;;;;5002025;28;20125;-73
2023/06/02 06:44:15;;;;;;;8.60;7.78;;;15.70;74.40;;;;;;5001162;28;20487;-73
2023/06/02 06:46:40;;;;;;;8.55;7.78;;;15.60;74.70;;;;;;5015535;28;20092;-73
2023/06/02 06:49:06;;;;;;;8.57;7.90;;;15.60;73.80;;;;;;4998834;28;20034;-73
2023/06/02 06:51:32;;;;;;;8.93;8.18;;;15.60;73.80;;;;;;5003442;28;20214;-74
2023/06/02 06:53:58;;;;;;;8.02;7.43;;;15.60;74.20;;;;;;5003277;28;20435;-74
2023/06/02 06:56:24;;;;;;;8.23;7.53;;;15.90;73.20;;;;;;5000055;28;20050;-74
2023/06/02 06:58:49;;;;;;;7.47;6.75;;;16.30;72.40;;;;;;5016193;28;20046;-74
2023/06/02 07:01:15;;;;;;;7.90;7.30;;;16.40;71.50;;;;;;5002170;28;20069;-75
2023/06/02 07:03:40;;;;;;;7.68;7.15;;;16.60;71.00;;;;;;4999867;28;20049;-76
2023/06/02 07:06:06;;;;;;;8.27;7.45;;;16.70;70.20;;;;;;5001401;28;20503;-75
2023/06/02 07:08:31;;;;;;;7.75;7.22;;;16.80;70.00;;;;;;5002779;28;20058;-74
2023/06/02 07:10:57;;;;;;;8.95;8.25;;;16.90;69.90;;;;;;4995404;28;20049;-74
2023/06/02 07:13:25;;;;;;;7.97;7.28;;;16.90;69.60;;;;;;5002106;28;20069;-73
2023/06/02 07:15:50;;;;;;;7.90;7.30;;;16.90;69.40;;;;;;5003259;28;20096;-73
2023/06/02 07:18:16;;;;;;;8.55;7.85;;;17.00;69.50;;;;;;4998394;28;20053;-74
2023/06/02 07:20:42;;;;;;;9.40;8.45;;;16.90;69.50;;;;;;5004324;28;20042;-74
2023/06/02 07:23:08;;;;;;;8.18;7.57;;;17.00;69.90;;;;;;4987535;28;20510;-73
2023/06/02 07:25:36;;;;;;;8.75;7.95;;;17.20;69.60;;;;;;5000851;28;20180;-74
2023/06/02 07:28:02;;;;;;;9.30;8.52;;;17.10;69.60;;;;;;5002667;28;20053;-73
2023/06/02 07:30:28;;;;;;;9.13;7.80;;;17.20;69.40;;;;;;5003046;28;20080;-73
2023/06/02 07:32:53;;;;;;;9.45;8.55;;;17.20;69.00;;;;;;5000992;28;20062;-73
2023/06/02 07:35:19;;;;;;;9.68;8.73;;;17.10;69.00;;;;;;5003674;28;20041;-73
2023/06/02 07:37:44;;;;;;;8.57;7.90;;;17.20;69.70;;;;;;5017872;28;20503;-74
2023/06/02 07:40:10;;;;;;;8.50;7.80;;;17.20;68.60;;;;;;5003366;28;20045;-73
2023/06/02 07:42:37;;;;;;;8.73;8.10;;;17.30;68.70;;;;;;5002604;28;20054;-73
2023/06/02 07:45:02;;;;;;;10.65;9.65;;;17.30;69.00;;;;;;5000339;28;20058;-73
2023/06/02 07:47:28;;;;;;;10.73;9.75;;;17.30;69.40;;;;;;5002945;28;20042;-72
2023/06/02 07:49:53;;;;;;;10.25;9.45;;;17.30;69.10;;;;;;5001976;28;20440;-72
2023/06/02 07:52:19;;;;;;;9.35;8.65;;;17.50;69.10;;;;;;5013336;28;20138;-74
2023/06/02 07:54:45;;;;;;;10.30;9.30;;;17.40;69.10;;;;;;4999871;28;20034;-73
2023/06/02 07:57:10;;;;;;;10.00;9.10;;;17.60;69.00;;;;;;4998245;28;20050;-74
2023/06/02 07:59:37;;;;;;;11.68;10.52;;;17.60;69.00;;;;;;4999590;28;20131;-74
2023/06/02 08:02:03;;;;;;;12.88;11.57;;;17.70;69.00;;;;;;5001932;28;20048;-73
2023/06/02 08:04:29;;;;;;;9.98;8.68;;;17.70;69.20;;;;;;5003436;28;20059;-74
2023/06/02 08:06:55;;;;;;;10.40;9.50;;;17.60;69.20;;;;;;4998492;28;20037;-74
2023/06/02 08:09:21;;;;;;;10.15;9.25;;;17.70;69.20;;;;;;4999463;28;20673;-74
2023/06/02 08:11:48;;;;;;;10.30;9.40;;;17.70;68.90;;;;;;4998078;28;20392;-74
2023/06/02 08:14:14;;;;;;;10.02;9.13;;;17.90;68.80;;;;;;5003366;28;20046;-74
2023/06/02 08:16:41;;;;;;;10.82;9.82;;;17.90;68.80;;;;;;5018326;28;20042;-74
2023/06/02 08:19:07;;;;;;;10.95;10.05;;;18.00;68.80;;;;;;5000102;28;20041;-74
2023/06/02 08:21:33;;;;;;;10.13;9.25;;;18.00;68.50;;;;;;5000721;28;20557;-74
2023/06/02 08:24:00;;;;;;;10.38;9.57;;;18.00;68.20;;;;;;5003087;28;20594;-75
2023/06/02 08:26:26;;;;;;;10.25;9.35;;;18.10;68.30;;;;;;5014971;28;20046;-75
2023/06/02 08:28:53;;;;;;;9.73;8.85;;;18.10;68.10;;;;;;5003412;28;20059;-75
2023/06/02 08:31:22;;;;;;;10.10;9.20;;;18.10;68.80;;;;;;5014833;28;20078;-74
2023/06/02 08:33:52;;;;;;;9.40;8.70;;;18.10;68.10;;;;;;5002677;28;20049;-74
2023/06/02 08:36:19;;;;;;;9.20;8.50;;;18.20;67.90;;;;;;4997845;28;20034;-74
2023/06/02 08:38:51;;;;;;;9.82;8.98;;;18.20;67.90;;;;;;5001745;28;20423;-75
2023/06/02 08:41:17;;;;;;;9.63;8.82;;;18.20;68.10;;;;;;4998859;28;20057;-75
2023/06/02 08:43:42;;;;;;;9.25;8.55;;;18.30;67.90;;;;;;5016873;28;20429;-76
2023/06/02 08:46:12;;;;;;;9.57;8.60;;;18.30;68.20;;;;;;5000392;28;20070;-75
2023/06/02 08:48:38;;;;;;;9.02;8.32;;;18.40;68.60;;;;;;5001526;28;20389;-75
2023/06/02 08:51:04;;;;;;;8.98;8.27;;;18.40;67.80;;;;;;4997768;28;20046;-75
2023/06/02 08:53:29;;;;;;;9.93;9.13;;;18.40;67.70;;;;;;5013995;28;20059;-74
2023/06/02 08:55:55;;;;;;;8.57;7.88;;;18.40;67.70;;;;;;5020143;28;20033;-74
2023/06/02 08:58:20;;;;;;;8.70;7.93;;;18.50;67.80;;;;;;5009277;28;20261;-74
2023/06/02 09:00:46;;;;;;;9.52;8.68;;;18.40;67.90;;;;;;5012916;28;20038;-74
2023/06/02 09:03:12;;;;;;;9.13;8.35;;;18.50;67.80;;;;;;5000597;28;20049;-75
2023/06/02 09:05:38;;;;;;;10.43;9.48;;;18.50;67.60;;;;;;4998943;28;20038;-75
2023/06/02 09:08:11;;;;;;;10.30;9.32;;;18.60;67.30;;;;;;5001778;28;20088;-75
2023/06/02 09:10:40;;;;;;;10.07;9.30;;;18.50;67.20;;;;;;5000357;28;20061;-76
2023/06/02 09:13:32;;;;;;;10.70;9.85;;;18.50;67.30;;;;;;5000152;28;20049;-76
2023/06/02 09:15:59;;;;;;;10.35;9.52;;;18.50;67.30;;;;;;4989711;28;20042;-75
2023/06/02 09:18:25;;;;;;;9.48;8.73;;;18.60;67.30;;;;;;5004947;28;20073;-76
2023/06/02 09:20:52;;;;;;;10.95;9.95;;;18.50;67.40;;;;;;4985221;28;20033;-76
2023/06/02 09:23:17;;;;;;;10.10;9.25;;;18.60;66.90;;;;;;5003134;28;20046;-77
2023/06/02 09:25:45;;;;;;;11.35;10.43;;;18.60;67.00;;;;;;5019848;28;20408;-77
2023/06/02 09:28:11;;;;;;;10.23;9.30;;;18.60;67.20;;;;;;4985227;28;20146;-76
2023/06/02 09:30:36;;;;;;;10.65;9.80;;;18.50;67.10;;;;;;5015681;28;20069;-77
2023/06/02 09:33:11;;;;;;;10.05;9.35;;;18.70;67.30;;;;;;5001103;28;20049;-77
2023/06/02 09:35:44;;;;;;;10.52;9.52;;;18.70;67.20;;;;;;4988885;28;20046;-76
2023/06/02 09:38:13;;;;;;;9.68;8.90;;;18.60;67.30;;;;;;5015380;28;20042;-76
2023/06/02 09:40:40;;;;;;;9.98;8.80;;;18.70;67.20;;;;;;5000536;28;20042;-77
2023/06/02 09:43:10;;;;;;;11.00;9.45;;;18.70;67.20;;;;;;4993626;28;20038;-75
2023/06/02 09:45:47;;;;;;;10.10;9.20;;;18.70;67.20;;;;;;5001930;28;20041;-76
2023/06/02 09:48:27;;;;;;;8.55;8.02;;;18.70;66.80;;;;;;4995490;28;20522;-75
2023/06/02 09:50:53;;;;;;;9.45;8.75;;;18.80;66.30;;;;;;5000597;28;20038;-76
2023/06/02 09:53:19;;;;;;;9.15;8.45;;;18.80;66.50;;;;;;5014636;28;20420;-77
2023/06/02 09:55:45;;;;;;;9.52;8.73;;;18.80;66.30;;;;;;5005304;28;20409;-77
2023/06/02 09:58:11;;;;;;;9.35;8.75;;;18.80;66.30;;;;;;5003659;28;20046;-75
2023/06/02 10:00:37;;;;;;;9.00;8.23;;;18.80;66.50;;;;;;4988212;28;20064;-73
2023/06/02 10:03:03;;;;;;;8.95;8.30;;;18.80;66.20;;;;;;4998723;28;20041;-74
2023/06/02 10:05:29;;;;;;;8.27;7.68;;;18.90;66.30;;;;;;5002250;28;20062;-75
2023/06/02 10:08:22;;;;;;;9.38;8.68;;;18.90;65.90;;;;;;5006335;28;20465;-75
2023/06/02 10:11:06;;;;;;;8.18;7.68;;;19.00;65.70;;;;;;5001170;28;20734;-76
2023/06/02 10:13:55;;;;;;;;;;;19.00;65.90;;;;;;5000922;28;20045;-76
2023/06/02 10:16:27;;;;;;;7.60;7.07;;;19.00;65.50;;;;;;5006109;28;19918;-74
2023/06/02 10:19:14;;;;;;;7.70;7.10;;;19.00;65.90;;;;;;5014033;28;20503;-74
2023/06/02 10:22:17;;;;;;;7.88;7.32;;;19.10;65.70;;;;;;5002020;28;20041;-74
2023/06/02 10:25:07;;;;;;;8.85;8.10;;;19.10;65.80;;;;;;5002602;28;20534;-76
2023/06/02 10:27:37;;;;;;;8.95;8.10;;;19.20;65.40;;;;;;5001943;28;20527;-74
2023/06/02 10:30:03;;;;;;;10.00;7.93;;;19.20;65.60;;;;;;4982224;28;20492;-75
2023/06/02 10:32:33;;;;;;;8.98;7.80;;;19.20;65.80;;;;;;5001097;28;20053;-75
2023/06/02 10:34:59;;;;;;;9.55;8.35;;;19.20;65.40;;;;;;5003336;28;21473;-74
2023/06/02 10:37:25;;;;;;;7.88;7.28;;;19.20;65.50;;;;;;4997501;28;20060;-77
2023/06/02 10:39:54;;;;;;;8.23;7.63;;;19.20;65.90;;;;;;5000213;28;20061;-77
2023/06/02 10:42:31;;;;;;;8.07;7.47;;;19.30;66.30;;;;;;5008631;28;20610;-77
2023/06/02 10:45:24;;;;;;;7.65;7.05;;;19.30;66.30;;;;;;4983920;28;20167;-77
2023/06/02 10:47:49;;;;;;;8.07;7.30;;;19.40;66.30;;;;;;5000900;28;20071;-76
2023/06/02 10:50:21;;;;;;;8.20;7.60;;;19.40;66.10;;;;;;4998035;28;20058;-76
2023/06/02 10:53:03;;;;;;;6.63;6.13;;;19.40;66.10;;;;;;4652575;28;10001216;-77
2023/06/02 10:55:33;;;;;;;7.93;7.28;;;19.50;65.70;;;;;;4999555;28;20062;-77
2023/06/02 10:58:03;;;;;;;7.50;7.00;;;19.50;65.50;;;;;;5014311;28;20060;-77
2023/06/02 11:00:40;;;;;;;8.07;7.07;;;19.60;65.70;;;;;;4999030;28;20205;-77
2023/06/02 11:03:09;;;;;;;7.28;6.78;;;19.60;65.40;;;;;;4998319;28;20060;-77
2023/06/02 11:05:35;;;;;;;7.00;6.50;;;19.60;65.40;;;;;;4997642;28;20038;-77
2023/06/02 11:08:10;;;;;;;10.05;6.65;;;19.60;65.40;;;;;;4999003;28;20192;-77
2023/06/02 11:10:49;;;;;;;6.85;6.45;;;19.50;65.60;;;;;;4995966;28;20057;-78
2023/06/02 11:13:18;;;;;;;7.15;6.65;;;19.50;65.30;;;;;;4993939;28;20104;-78
2023/06/02 11:15:53;;;;;;;6.93;6.40;;;19.60;65.60;;;;;;5000312;28;20629;-78
2023/06/02 11:18:21;;;;;;;7.05;6.55;;;19.60;65.50;;;;;;4998669;28;20052;-83
2023/06/02 11:20:51;;;;;;;7.55;6.95;;;19.60;65.40;;;;;;5012299;28;20312;-81
2023/06/02 11:23:19;;;;;;;6.90;6.50;;;19.70;65.30;;;;;;4997413;28;20049;-82
2023/06/02 11:25:48;;;;;;;6.75;6.30;;;19.70;65.50;;;;;;5000193;28;20108;-81
2023/06/02 11:28:23;;;;;;;6.97;6.32;;;19.70;65.50;;;;;;4997035;28;20062;-82
2023/06/02 11:31:11;;;;;;;6.32;5.93;;;19.80;65.50;;;;;;4994555;28;20108;-80
2023/06/02 11:33:38;;;;;;;6.93;6.53;;;19.80;65.60;;;;;;4998496;28;20046;-81
2023/06/02 11:36:04;;;;;;;6.88;6.45;;;19.80;65.90;;;;;;4999114;28;20451;-81
2023/06/02 11:38:32;;;;;;;6.75;6.25;;;19.80;66.00;;;;;;5002027;28;20058;-81
2023/06/02 11:41:16;;;;;;;6.10;5.70;;;19.80;66.30;;;;;;5005134;28;20254;-82
2023/06/02 11:43:44;;;;;;;6.03;5.63;;;19.80;65.90;;;;;;5003848;28;20151;-80
2023/06/02 11:46:11;;;;;;;6.13;5.78;;;19.80;66.70;;;;;;5000006;28;20519;-79
2023/06/02 11:48:38;;;;;;;6.53;6.13;;;19.80;65.80;;;;;;5000112;28;20499;-80
2023/06/02 11:51:05;;;;;;;7.32;5.93;;;19.90;66.10;;;;;;4997477;28;20048;-81
2023/06/02 11:53:30;;;;;;;5.18;4.88;;;19.80;66.30;;;;;;4997706;28;20065;-80
2023/06/02 11:55:56;;;;;;;5.72;5.40;;;19.90;66.40;;;;;;5003432;28;20487;-82
2023/06/02 11:58:22;;;;;;;5.97;5.43;;;19.90;66.50;;;;;;5000445;28;20480;-80
2023/06/02 12:00:49;;;;;;;6.80;6.32;;;19.90;66.60;;;;;;5002784;28;20112;-81
2023/06/02 12:03:15;;;;;;;6.85;6.30;;;19.90;66.70;;;;;;5000927;28;20638;-81
2023/06/02 12:05:45;;;;;;;6.03;5.63;;;19.90;66.60;;;;;;5000910;28;20043;-82
2023/06/02 12:08:11;;;;;;;6.45;6.05;;;19.90;66.90;;;;;;5002137;28;20034;-78
2023/06/02 12:10:37;;;;;;;5.78;5.47;;;20.00;66.90;;;;;;4983587;28;20053;-85
2023/06/02 12:13:03;;;;;;;5.07;4.78;;;20.00;66.90;;;;;;5002006;28;20073;-79
2023/06/02 12:15:33;;;;;;;5.30;4.97;;;20.00;66.90;;;;;;5016784;28;20089;-80
2023/06/02 12:18:00;;;;;;;5.82;5.32;;;20.00;67.00;;;;;;5009153;28;20051;-80
2023/06/02 12:20:38;;;;;;;5.38;4.97;;;20.00;66.90;;;;;;5000347;28;20053;-81
2023/06/02 12:23:04;;;;;;;5.22;4.93;;;20.00;67.00;;;;;;5003517;28;20045;-83
2023/06/02 12:25:30;;;;;;;5.85;5.30;;;20.10;67.30;;;;;;5002944;28;20053;-82
2023/06/02 12:28:12;;;;;;;5.78;5.32;;;20.10;67.20;;;;;;5016499;28;20049;-84
2023/06/02 12:30:38;;;;;;;4.97;4.65;;;20.10;67.50;;;;;;4997726;28;20050;-81
2023/06/02 12:33:05;;;;;;;5.00;4.55;;;20.10;67.40;;;;;;4997952;28;20053;-84
2023/06/02 12:35:30;;;;;;;5.07;4.78;;;20.20;67.70;;;;;;5000597;28;20657;-83
2023/06/02 12:37:56;;;;;;;4.80;4.50;;;20.20;67.50;;;;;;5017993;28;20045;-83
2023/06/02 12:40:22;;;;;;;5.32;4.72;;;20.20;67.50;;;;;;5015675;28;20049;-84
2023/06/02 12:42:48;;;;;;;4.82;4.45;;;20.20;68.10;;;;;;4999940;28;20072;-84
2023/06/02 12:45:13;;;;;;;5.38;5.07;;;20.10;67.30;;;;;;4999748;28;20135;-82
2023/06/02 12:47:39;;;;;;;5.25;4.85;;;20.10;67.30;;;;;;5013389;28;20173;-84